Time;durP1;ratioP1;P1;durP2;ratioP2;P2;SDS_P1;SDS_P2;PMS_P1;PMS_P2;Temp;Humidity;BMP_temperature;BMP_pressure;BME280_temperature;BME280_humidity;BME280_pressure;Samples;Min_cycle;Max_cycle;Signal;HPM_P1;HPM_P2
2022/05/02 00:01:11;;;;;;;22.52;10.82;;;;;;;5.76;79.39;102004.78;5063432;28;20025;-90
2022/05/02 00:03:46;;;;;;;23.08;11.50;;;;;;;5.65;79.90;101989.41;5052369;28;20021;-90
2022/05/02 00:06:23;;;;;;;22.40;11.48;;;;;;;5.66;79.98;101999.00;5065518;28;20036;-90
2022/05/02 00:08:54;;;;;;;19.17;11.50;;;;;;;5.59;80.86;101993.63;5047268;28;20132;-90
2022/05/02 00:11:28;;;;;;;20.10;11.63;;;;;;;5.49;80.51;101982.53;5049860;28;20033;-91
2022/05/02 00:14:03;;;;;;;24.42;11.05;;;;;;;5.45;81.26;101982.13;5065171;28;20491;-91
2022/05/02 00:16:31;;;;;;;17.57;10.87;;;;;;;5.45;80.52;101982.91;5048688;28;20046;-91
2022/05/02 00:19:10;;;;;;;17.07;10.67;;;;;;;5.46;80.11;101989.88;5051023;28;20302;-91
2022/05/02 00:21:38;;;;;;;18.25;11.27;;;;;;;5.45;80.83;101988.25;5062260;28;20102;-92
2022/05/02 00:24:16;;;;;;;18.55;10.95;;;;;;;5.43;80.56;101994.78;5073048;28;20361;-90
2022/05/02 00:26:50;;;;;;;19.40;10.63;;;;;;;5.35;81.47;101973.66;5067883;28;20041;-90
2022/05/02 00:29:25;;;;;;;23.13;10.85;;;;;;;5.17;81.13;101959.00;5065200;28;20056;-90
2022/05/02 00:31:59;;;;;;;17.00;9.98;;;;;;;5.22;81.62;101964.59;5067002;28;20088;-91
2022/05/02 00:37:18;;;;;;;23.05;11.20;;;;;;;5.12;82.62;101972.06;5033716;28;20032;-91
2022/05/02 00:39:44;;;;;;;25.08;11.73;;;;;;;5.07;82.12;101963.84;5068553;28;20050;-90
2022/05/02 00:42:15;;;;;;;24.30;11.03;;;;;;;5.10;82.06;101968.78;5052020;28;20476;-90
2022/05/02 00:44:44;;;;;;;23.38;11.70;;;;;;;5.00;82.37;101956.66;5050071;28;20024;-91
2022/05/02 00:47:10;;;;;;;22.88;11.13;;;;;;;5.00;82.60;101961.97;5047640;28;20033;-91
2022/05/02 00:49:40;;;;;;;26.85;11.75;;;;;;;5.01;83.19;101965.47;5059186;28;20086;-91
2022/05/02 00:52:06;;;;;;;20.00;11.27;;;;;;;4.91;82.88;101957.81;5068289;28;20674;-91
2022/05/02 00:54:32;;;;;;;23.43;12.47;;;;;;;4.86;83.63;101954.91;5053535;28;20020;-90
2022/05/02 00:56:59;;;;;;;20.40;12.02;;;;;;;4.85;83.69;101955.91;5063072;28;20031;-90
2022/05/02 01:02:26;;;;;;;23.77;12.35;;;;;;;4.71;84.06;101944.34;5018395;28;20045;-91
2022/05/02 01:07:30;;;;;;;19.50;11.97;;;;;;;4.74;84.11;101954.59;5060583;28;20725;-90
2022/05/02 01:09:56;;;;;;;24.57;13.53;;;;;;;4.64;84.40;101935.53;5053236;28;20293;-91
2022/05/02 01:12:31;;;;;;;22.13;12.77;;;;;;;4.62;84.44;101946.31;5069822;28;20055;-90
2022/05/02 01:14:57;;;;;;;21.77;12.80;;;;;;;4.66;84.77;101963.50;5070465;28;20033;-91
2022/05/02 01:17:31;;;;;;;24.40;12.40;;;;;;;4.59;84.57;101957.31;5070509;28;20029;-91
2022/05/02 01:19:57;;;;;;;21.45;12.80;;;;;;;4.47;85.50;101948.22;5069522;28;20047;-91
2022/05/02 01:22:22;;;;;;;22.40;12.17;;;;;;;4.50;85.43;101958.47;5069455;28;20017;-90
2022/05/02 01:27:48;;;;;;;22.67;13.18;;;;;;;4.45;85.14;101950.22;5065056;28;20052;-90
2022/05/02 01:32:42;;;;;;;28.10;12.52;;;;;;;4.34;86.11;101941.78;5053469;23;20052;-90
2022/05/02 01:35:13;;;;;;;20.05;11.80;;;;;;;4.43;85.57;101950.44;5039294;28;20056;-90
2022/05/02 01:37:45;;;;;;;24.20;12.25;;;;;;;4.38;86.00;101948.31;5041688;28;20034;-92
2022/05/02 01:42:48;;;;;;;21.30;11.70;;;;;;;4.27;85.48;101940.06;5064707;22;20395;-94
2022/05/02 01:45:23;;;;;;;21.83;12.30;;;;;;;4.21;85.64;101931.00;5069663;28;20036;-91
2022/05/02 01:47:48;;;;;;;21.20;11.95;;;;;;;4.30;86.29;101951.13;5060395;28;20028;-91
2022/05/02 01:50:13;;;;;;;19.27;12.03;;;;;;;4.23;86.14;101943.09;5073072;28;20043;-91
2022/05/02 01:52:48;;;;;;;20.33;12.03;;;;;;;4.13;86.37;101928.47;5073177;28;20044;-91
2022/05/02 01:55:13;;;;;;;23.35;11.63;;;;;;;4.05;86.25;101929.41;5061730;28;20052;-91
2022/05/02 01:58:51;;;;;;;20.63;11.93;;;;;;;4.11;86.19;101949.06;5063345;28;20052;-92
2022/05/02 02:01:17;;;;;;;20.98;11.27;;;;;;;4.05;86.59;101940.03;5063841;23;20057;-91
2022/05/02 02:07:14;;;;;;;26.38;12.55;;;;;;;3.88;87.07;101934.09;5021574;28;20052;-92
2022/05/02 02:10:02;;;;;;;18.95;11.52;;;;;;;3.89;87.27;101941.88;5032921;28;20021;-93
2022/05/02 02:12:27;;;;;;;20.98;11.32;;;;;;;3.87;87.68;101935.94;5014964;28;20018;-91
2022/05/02 02:14:52;;;;;;;21.97;11.93;;;;;;;3.85;87.40;101945.91;5012167;28;20033;-92
2022/05/02 02:17:18;;;;;;;25.03;13.57;;;;;;;3.81;87.83;101941.16;5012933;28;20034;-93
2022/05/02 02:19:46;;;;;;;25.07;13.27;;;;;;;3.81;88.07;101941.16;4994100;28;20036;-92
2022/05/02 02:22:17;;;;;;;20.73;12.43;;;;;;;3.79;88.35;101939.53;5012502;28;20370;-92
2022/05/02 02:24:49;;;;;;;24.63;12.80;;;;;;;3.82;88.12;101940.16;5013379;28;20490;-92
2022/05/02 02:27:15;;;;;;;20.70;12.63;;;;;;;3.74;88.13;101928.66;5011839;28;20057;-92
2022/05/02 02:29:46;;;;;;;24.35;12.90;;;;;;;3.74;88.06;101933.94;5012211;28;20370;-92
2022/05/02 02:32:49;;;;;;;24.10;12.68;;;;;;;3.76;87.83;101947.84;5012624;28;20172;-92
2022/05/02 02:35:14;;;;;;;25.00;12.67;;;;;;;3.65;88.40;101929.78;5016267;28;20398;-91
2022/05/02 02:37:42;;;;;;;23.07;13.33;;;;;;;3.70;88.52;101940.63;5012351;28;20301;-92
2022/05/02 02:40:09;;;;;;;19.37;11.97;;;;;;;3.55;88.46;101924.75;5016118;28;20055;-91
2022/05/02 02:42:44;;;;;;;24.30;13.03;;;;;;;3.63;88.30;101937.06;5016953;28;20269;-91
2022/05/02 02:45:12;;;;;;;21.42;12.55;;;;;;;3.61;89.01;101937.25;5015790;28;20034;-92
2022/05/02 02:47:39;;;;;;;22.17;12.32;;;;;;;3.49;88.62;101923.63;5012037;28;20121;-95
2022/05/02 02:50:11;;;;;;;25.40;12.80;;;;;;;3.55;88.80;101929.22;5015659;28;20033;-91
2022/05/02 02:52:36;;;;;;;20.08;12.27;;;;;;;3.49;88.47;101928.94;4998264;28;20121;-93
2022/05/02 02:55:02;;;;;;;21.60;13.18;;;;;;;3.42;88.79;101925.38;5013999;28;20442;-92
2022/05/02 02:57:53;;;;;;;23.67;13.03;;;;;;;3.40;89.33;101927.38;5015092;28;20117;-93
2022/05/02 03:00:18;;;;;;;22.40;13.15;;;;;;;3.24;89.57;101903.72;5014741;28;20037;-92
2022/05/02 03:11:16;;;;;;;20.27;12.13;;;;;;;3.16;90.31;101907.28;5564694;22;20061;-88
2022/05/02 03:16:15;;;;;;;21.35;12.65;;;;;;;3.07;89.62;101908.34;5071857;23;20049;-93
2022/05/02 03:18:56;;;;;;;21.77;12.35;;;;;;;3.02;90.10;101901.78;5056214;28;20416;-93
2022/05/02 03:21:21;;;;;;;22.02;12.30;;;;;;;2.97;90.27;101896.22;5054897;28;20021;-94
2022/05/02 03:26:18;;;;;;;22.05;12.73;;;;;;;2.98;90.82;101902.31;5059632;23;20053;-94
2022/05/02 03:34:18;;;;;;;22.30;12.73;;;;;;;2.95;90.92;101907.97;5032376;28;20042;-94
2022/05/02 03:36:59;;;;;;;20.17;11.90;;;;;;;2.86;90.76;101904.56;5005439;28;20053;-93
2022/05/02 03:39:24;;;;;;;23.08;12.57;;;;;;;2.82;91.15;101898.81;5015911;28;20397;-94
2022/05/02 03:41:50;;;;;;;22.13;13.00;;;;;;;2.78;91.15;101894.88;5057384;23;20052;-91
2022/05/02 03:44:28;;;;;;;19.93;12.57;;;;;;;2.76;91.41;101888.13;5052583;28;20396;-94
2022/05/02 03:54:54;;;;;;;20.17;12.32;;;;;;;2.62;91.41;101892.38;5122417;23;20049;-93
2022/05/02 03:57:19;;;;;;;21.45;12.43;;;;;;;2.67;91.65;101905.91;4996911;28;20022;-93
2022/05/02 04:04:55;;;;;;;24.95;12.40;;;;;;;2.60;91.73;101910.25;5243179;23;20053;-93
2022/05/02 04:07:20;;;;;;;23.00;12.93;;;;;;;2.57;91.60;101904.31;5033804;28;20024;-92
2022/05/02 04:09:47;;;;;;;25.47;13.60;;;;;;;2.54;92.43;101893.28;5034522;28;20104;-91
2022/05/02 04:12:16;;;;;;;25.52;12.80;;;;;;;2.61;92.41;101906.63;5035751;28;20100;-92
2022/05/02 04:14:59;;;;;;;24.58;12.85;;;;;;;2.54;92.91;101896.75;5032429;28;20122;-93
2022/05/02 04:20:00;;;;;;;21.17;13.00;;;;;;;2.73;92.70;101910.50;5202560;23;20068;-88
2022/05/02 04:22:26;;;;;;;22.27;13.33;;;;;;;2.72;92.07;101898.28;5031768;28;20337;-87
2022/05/02 04:24:54;;;;;;;23.20;13.35;;;;;;;2.73;92.40;101905.22;5028413;28;20140;-89
2022/05/02 04:27:20;;;;;;;28.75;12.95;;;;;;;2.75;92.27;101911.13;5038098;28;20032;-88
2022/05/02 04:32:26;;;;;;;27.08;13.63;;;;;;;2.80;93.10;101914.06;5530878;22;20061;-89
2022/05/02 04:34:54;;;;;;;26.27;13.63;;;;;;;2.83;92.72;101910.25;5053608;28;20032;-90
2022/05/02 04:47:41;;;;;;;28.02;13.80;;;;;;;2.94;92.06;101893.09;5547817;23;20045;-88
2022/05/02 04:52:42;;;;;;;25.47;13.87;;;;;;;3.07;92.69;101901.25;5048533;23;20308;-89
2022/05/02 04:55:07;;;;;;;25.65;14.20;;;;;;;3.10;92.93;101902.69;5028104;28;20052;-92
2022/05/02 04:57:36;;;;;;;24.83;13.80;;;;;;;3.15;92.33;101897.69;5052808;28;20496;-91
2022/05/02 05:00:17;;;;;;;26.60;14.77;;;;;;;3.33;91.96;101913.22;5039991;28;20370;-92
2022/05/02 05:02:52;;;;;;;27.85;15.18;;;;;;;3.36;91.60;101904.09;5033814;28;20029;-91
2022/05/02 05:05:18;;;;;;;26.80;14.65;;;;;;;3.44;91.71;101910.13;5013517;28;20061;-87
2022/05/02 05:07:43;;;;;;;30.20;15.57;;;;;;;3.60;92.61;101921.53;4994844;28;20076;-89
2022/05/02 05:10:09;;;;;;;27.53;15.57;;;;;;;3.63;91.45;101906.06;5024890;28;20029;-88
2022/05/02 05:13:04;;;;;;;28.75;15.90;;;;;;;3.82;91.24;101908.34;5029818;28;20037;-88
2022/05/02 05:19:32;;;;;;;38.97;17.73;;;;;;;4.87;90.00;101915.88;5032217;28;20083;-88
2022/05/02 05:22:45;;;;;;;31.50;17.13;;;;;;;6.03;86.90;101914.47;4969518;28;20039;-90
2022/05/02 05:29:14;;;;;;;32.27;16.90;;;;;;;7.34;82.64;101927.41;5020365;28;20300;-88
2022/05/02 05:32:17;;;;;;;41.88;18.10;;;;;;;7.46;81.71;101930.25;5051480;28;20076;-88
2022/05/02 05:35:33;;;;;;;35.40;16.83;;;;;;;7.27;81.39;101901.56;5048136;28;20025;-89
2022/05/02 05:38:39;;;;;;;32.30;18.17;;;;;;;7.24;81.33;101914.53;4964274;29;20047;-92
2022/05/02 05:41:40;;;;;;;29.75;17.00;;;;;;;7.14;81.94;101914.94;4948489;29;20456;-91
2022/05/02 05:44:43;;;;;;;30.08;17.25;;;;;;;7.05;81.71;101922.34;4935995;29;20075;-91
2022/05/02 05:47:37;;;;;;;31.30;18.05;;;;;;;6.96;82.77;101924.41;4936501;28;20048;-86
2022/05/02 05:50:24;;;;;;;32.13;17.85;;;;;;;6.80;83.47;101912.31;5031831;28;20038;-88
2022/05/02 05:53:30;;;;;;;36.03;18.02;;;;;;;6.84;84.60;101920.72;5027321;28;20036;-89
2022/05/02 05:56:12;;;;;;;34.87;17.67;;;;;;;6.82;84.65;101928.91;5031564;28;20370;-88
2022/05/02 05:59:08;;;;;;;33.97;18.13;;;;;;;6.73;84.66;101902.69;5034566;28;20291;-87
2022/05/02 06:05:17;;;;;;;;;;;;;;;;;;;;;
2022/05/02 06:08:21;;;;;;;33.65;18.70;;;;;;;7.10;85.21;101929.72;4979479;28;20492;-90
2022/05/02 06:10:51;;;;;;;32.83;17.95;;;;;;;7.18;84.99;101934.84;5049503;28;20123;-88
2022/05/02 06:13:18;;;;;;;34.38;18.33;;;;;;;7.30;84.21;101936.84;5043458;28;20032;-89
2022/05/02 06:18:41;;;;;;;31.90;17.52;;;;;;;7.55;83.37;101942.31;5049402;28;20113;-88
2022/05/02 06:21:10;;;;;;;34.97;18.77;;;;;;;7.68;83.86;101938.81;5302032;23;20050;-90
2022/05/02 06:27:02;;;;;;;33.33;17.07;;;;;;;7.98;82.01;101936.41;5064338;28;20345;-89
2022/05/02 06:32:19;;;;;;;30.13;16.13;;;;;;;8.36;80.62;101926.75;5037053;28;20055;-89
2022/05/02 06:34:54;;;;;;;35.80;18.00;;;;;;;8.51;79.82;101929.16;5058159;28;20044;-89
2022/05/02 06:38:10;;;;;;;26.58;15.00;;;;;;;8.58;78.63;101919.22;5058445;28;20021;-88
2022/05/02 06:41:00;;;;;;;21.60;14.63;;;;;;;8.89;78.37;101933.56;5059763;28;20087;-90
2022/05/02 06:43:30;;;;;;;24.15;15.30;;;;;;;9.05;77.71;101934.06;5055344;28;20085;-90
2022/05/02 06:46:12;;;;;;;28.08;14.88;;;;;;;9.19;76.64;101940.91;5063525;28;20021;-89
2022/05/02 06:49:10;;;;;;;23.75;15.02;;;;;;;9.35;76.42;101934.16;5061072;28;20021;-90
2022/05/02 06:51:38;;;;;;;21.87;14.43;;;;;;;9.52;76.34;101942.41;5055633;28;20603;-88
2022/05/02 06:54:41;;;;;;;23.83;12.13;;;;;;;9.63;74.49;101940.84;5055886;28;20287;-88
2022/05/02 06:57:22;;;;;;;29.85;14.90;;;;;;;9.78;74.16;101936.94;5051712;28;20761;-86
2022/05/02 07:00:14;;;;;;;23.83;14.45;;;;;;;9.92;73.60;101940.28;5048142;28;20014;-87
2022/05/02 07:03:02;;;;;;;25.38;14.27;;;;;;;10.07;72.29;101946.06;5053531;28;20503;-88
2022/05/02 07:08:07;;;;;;;21.75;13.77;;;;;;;10.31;71.06;101940.78;5072427;28;20075;-89
2022/05/02 07:10:47;;;;;;;25.35;14.35;;;;;;;10.41;69.44;101935.69;5101558;23;20049;-89
2022/05/02 07:17:13;;;;;;;20.90;13.48;;;;;;;10.61;68.50;101923.84;5027025;28;20041;-89
2022/05/02 07:26:46;;;;;;;22.63;12.75;;;;;;;11.18;67.73;101941.25;5034464;28;20052;-87
2022/05/02 07:30:15;;;;;;;21.08;12.63;;;;;;;11.29;66.12;101934.25;5032912;28;20041;-89
2022/05/02 07:36:36;;;;;;;17.88;12.13;;;;;;;11.52;65.85;101933.38;5011339;28;20137;-89
2022/05/02 08:29:22;;;;;;;16.73;9.63;;;;;;;13.72;51.73;101914.84;5028266;28;20124;-85
2022/05/02 08:32:31;;;;;;;14.40;10.07;;;;;;;13.95;51.60;101931.81;5044987;28;20029;-87
2022/05/02 08:35:21;;;;;;;14.27;9.50;;;;;;;14.14;51.29;101931.47;5044157;28;20041;-85
2022/05/02 08:38:08;;;;;;;16.55;9.60;;;;;;;14.34;51.73;101931.66;5044843;28;20044;-84
2022/05/02 08:41:14;;;;;;;13.55;9.60;;;;;;;14.46;50.24;101933.34;5027558;28;20033;-85
2022/05/02 08:47:38;;;;;;;14.65;8.20;;;;;;;14.64;49.69;101932.97;5039135;28;20130;-84
2022/05/02 08:50:49;;;;;;;18.10;9.33;;;;;;;14.61;48.12;101917.28;5034079;28;20030;-85
2022/05/02 08:54:03;;;;;;;17.60;9.47;;;;;;;14.82;49.71;101928.25;5043834;28;20650;-85
2022/05/02 08:57:12;;;;;;;12.65;9.38;;;;;;;15.08;49.58;101920.34;5041152;28;20409;-86
2022/05/02 09:03:42;;;;;;;12.98;8.10;;;;;;;15.48;45.64;101924.31;4933497;29;20075;-86
2022/05/02 09:06:59;;;;;;;14.30;7.90;;;;;;;15.56;47.00;101926.47;4961980;28;20121;-87
2022/05/02 09:10:10;;;;;;;15.88;9.15;;;;;;;15.63;45.43;101922.72;4939730;29;20027;-86
2022/05/02 09:13:19;;;;;;;15.07;8.52;;;;;;;15.64;45.20;101921.66;5024224;28;20034;-87
2022/05/02 09:16:17;;;;;;;16.10;8.55;;;;;;;15.63;44.02;101917.34;5014528;28;20113;-87
2022/05/02 09:19:04;;;;;;;11.05;8.40;;;;;;;15.61;44.34;101923.00;5028565;28;20084;-88
2022/05/02 09:21:41;;;;;;;12.13;7.77;;;;;;;15.71;43.52;101916.78;5033371;28;20028;-86
2022/05/02 09:24:54;;;;;;;14.73;7.93;;;;;;;15.84;44.18;101919.00;4999588;28;20698;-86
2022/05/02 09:27:57;;;;;;;14.77;8.70;;;;;;;15.80;43.30;101922.50;4949018;28;20050;-90
2022/05/02 09:30:22;;;;;;;13.48;8.18;;;;;;;15.79;41.34;101913.59;5024306;28;20068;-86
2022/05/02 09:33:00;;;;;;;13.03;8.00;;;;;;;15.82;43.01;101915.75;5031745;28;20080;-86
2022/05/02 09:36:01;;;;;;;13.32;7.97;;;;;;;16.00;41.77;101927.19;5019192;28;20090;-86
2022/05/02 09:38:34;;;;;;;13.57;8.60;;;;;;;16.04;41.76;101912.06;5014004;28;20041;-87
2022/05/02 09:41:18;;;;;;;17.40;7.90;;;;;;;16.13;41.77;101913.13;5029985;28;20067;-86
2022/05/02 09:56:58;;;;;;;13.50;7.63;;;;;;;16.41;40.80;101883.94;5042998;28;20514;-88
2022/05/02 10:03:32;;;;;;;14.20;8.40;;;;;;;16.48;39.58;101875.56;4987886;28;20049;-88
2022/05/02 10:06:41;;;;;;;11.77;8.00;;;;;;;16.68;40.56;101896.34;4988599;28;20042;-90
2022/05/02 10:09:43;;;;;;;13.43;7.88;;;;;;;16.84;40.61;101891.72;4981936;28;20046;-88
2022/05/02 10:13:09;;;;;;;18.85;7.93;;;;;;;16.89;39.32;101885.47;4994368;28;20564;-87
2022/05/02 10:16:14;;;;;;;11.48;7.32;;;;;;;17.08;40.01;101888.41;5028899;28;20029;-88
2022/05/02 10:22:38;;;;;;;12.13;6.40;;;;;;;17.34;37.92;101877.50;5040573;28;20044;-89
2022/05/02 10:25:29;;;;;;;9.00;7.65;;;;;;;17.47;39.51;101881.50;5050519;28;20068;-89
2022/05/02 10:27:55;;;;;;;10.97;7.37;;;;;;;17.68;37.65;101883.03;5048723;28;20523;-89
2022/05/02 10:30:20;;;;;;;15.57;8.50;;;;;;;17.73;37.43;101878.63;5046688;28;20298;-88
2022/05/02 10:33:41;;;;;;;11.40;8.30;;;;;;;17.76;38.98;101869.94;5049096;28;20097;-88
2022/05/02 10:36:11;;;;;;;11.02;7.80;;;;;;;17.80;39.12;101876.44;5033231;28;20033;-88
2022/05/02 10:39:20;;;;;;;10.15;7.30;;;;;;;18.05;37.54;101872.75;5046097;23;20040;-86
2022/05/02 10:45:07;;;;;;;10.80;8.30;;;;;;;18.19;37.81;101874.81;5053964;28;20059;-87
2022/05/02 10:48:18;;;;;;;14.13;8.07;;;;;;;18.14;38.14;101856.69;5068989;28;20044;-87
2022/05/02 10:55:06;;;;;;;;;;;;;;;;;;;;;
2022/05/02 10:57:58;;;;;;;10.23;7.65;;;;;;;18.20;38.33;101857.44;4987210;28;20053;-88
2022/05/02 12:11:14;;;;;;;10.88;7.50;;;;;;;20.03;33.37;101807.66;5701572;22;20045;-91
2022/05/02 12:13:47;;;;;;;10.60;8.13;;;;;;;20.25;32.18;101814.34;5074137;28;20410;-92
2022/05/02 12:18:51;;;;;;;14.43;8.63;;;;;;;20.50;32.92;101809.53;4941964;26;20046;-93
2022/05/02 12:21:24;;;;;;;15.33;8.67;;;;;;;20.54;32.00;101813.25;4986173;28;20308;-93
2022/05/02 12:26:28;;;;;;;11.10;8.73;;;;;;;20.12;32.44;101814.00;5218991;22;20040;-94
2022/05/02 12:29:31;;;;;;;11.52;8.65;;;;;;;19.76;34.38;101802.91;5946149;23;20126;-93
2022/05/02 12:32:16;;;;;;;13.30;9.65;;;;;;;19.22;33.83;101787.66;5034767;28;20521;-95
2022/05/02 12:37:39;;;;;;;15.95;8.65;;;;;;;19.13;34.11;101783.97;5581876;22;20082;-93
2022/05/02 12:40:18;;;;;;;13.50;8.18;;;;;;;19.40;34.51;101787.94;5060603;28;20070;-95
2022/05/02 12:46:20;;;;;;;12.43;8.80;;;;;;;20.12;33.52;101803.13;5051484;28;20396;-95
2022/05/02 12:49:00;;;;;;;12.70;8.97;;;;;;;20.18;32.91;101792.94;5069267;28;20305;-96
2022/05/02 12:51:51;;;;;;;11.27;8.15;;;;;;;20.33;31.95;101805.47;5054667;28;20054;-94
2022/05/02 12:54:17;;;;;;;11.50;8.45;;;;;;;20.45;32.30;101794.09;5055835;28;20028;-95
2022/05/02 13:02:51;;;;;;;15.83;9.63;;;;;;;21.30;31.59;101785.56;5072693;28;20313;-91
2022/05/02 13:05:18;;;;;;;12.75;8.90;;;;;;;;;;5075120;28;20036;-93
2022/05/02 13:10:30;;;;;;;11.43;8.63;;;;;;;21.59;32.32;101769.88;6114472;22;20009;-93
2022/05/02 13:23:35;;;;;;;15.18;10.02;;;;;;;21.93;30.70;101739.31;5023467;28;20047;-89
2022/05/02 14:32:08;;;;;;;13.03;9.87;;;;;;;21.55;30.20;101696.06;5140918;23;20296;-88
2022/05/02 14:54:50;;;;;;;16.65;10.93;;;;;;;21.06;31.87;101678.75;5058106;28;20515;-91
2022/05/02 14:58:16;;;;;;;;;;;;;;;;;;;;;
2022/05/02 15:00:53;;;;;;;14.88;10.25;;;;;;;21.19;31.08;101680.59;4970751;28;20053;-91
2022/05/02 15:22:31;;;;;;;14.95;10.73;;;;;;;22.07;30.12;101670.19;5044129;28;20048;-90
2022/05/02 15:39:01;;;;;;;11.40;9.77;;;;;;;22.44;28.52;101659.06;4904388;29;20119;-91
2022/05/02 15:51:45;;;;;;;18.23;10.27;;;;;;;23.07;28.71;101651.38;4899791;29;20052;-91
2022/05/02 15:54:43;;;;;;;17.15;9.73;;;;;;;22.99;27.15;101649.47;4897749;29;20112;-90
2022/05/02 15:57:11;;;;;;;15.52;9.45;;;;;;;22.50;27.40;101650.41;5020730;23;20573;-89
2022/05/02 16:00:06;;;;;;;11.00;8.45;;;;;;;22.44;27.31;101634.50;5072439;28;20054;-90
2022/05/02 16:12:46;;;;;;;15.43;8.13;;;;;;;22.22;27.60;101630.72;4996386;28;20046;-95
2022/05/02 16:34:20;;;;;;;13.15;8.77;;;;;;;21.55;28.31;101635.28;5087798;28;20079;-95
2022/05/02 16:37:36;;;;;;;12.48;7.68;;;;;;;21.42;28.02;101629.63;5069161;28;20534;-94
2022/05/02 16:53:55;;;;;;;10.63;7.57;;;;;;;21.30;28.51;101629.38;5395204;22;20050;-93
2022/05/02 17:18:00;;;;;;;13.60;7.28;;;;;;;20.52;30.71;101608.59;5736334;23;20108;-91
2022/05/02 17:30:18;;;;;;;10.07;7.55;;;;;;;18.89;33.70;101630.03;5063221;28;20454;-92
2022/05/02 17:33:24;;;;;;;12.85;7.25;;;;;;;18.81;34.42;101640.75;5073650;28;20031;-91
2022/05/02 19:10:27;;;;;;;14.15;6.22;;;;;;;13.53;50.74;101698.16;5033173;28;20120;-93
2022/05/02 19:40:21;;;;;;;9.00;5.83;;;;;;;12.68;55.13;101726.31;5052139;28;20063;-93
2022/05/02 19:42:48;;;;;;;10.13;5.93;;;;;;;12.61;56.64;101745.31;5062552;28;20279;-94
2022/05/02 19:50:55;;;;;;;8.73;6.13;;;;;;;12.48;57.59;101749.16;5033916;28;20046;-93
2022/05/02 19:53:22;;;;;;;11.13;6.40;;;;;;;12.31;58.87;101749.22;5035720;28;20389;-94
2022/05/02 19:55:49;;;;;;;12.13;6.07;;;;;;;12.26;59.27;101755.31;5075240;23;20056;-92
2022/05/02 19:58:20;;;;;;;11.52;6.45;;;;;;;12.18;59.58;101760.28;5062719;28;20032;-93
2022/05/02 20:00:57;;;;;;;8.57;5.53;;;;;;;11.98;59.84;101748.13;5063762;28;20037;-93
2022/05/02 20:03:23;;;;;;;10.00;6.13;;;;;;;12.01;60.15;101760.31;5074837;28;20444;-95
2022/05/02 20:05:48;;;;;;;13.53;6.17;;;;;;;11.90;60.54;101757.41;5069290;28;20060;-92
2022/05/02 20:08:20;;;;;;;8.37;5.70;;;;;;;11.82;60.53;101753.25;5073194;28;20090;-88
2022/05/02 20:11:26;;;;;;;9.57;5.57;;;;;;;11.84;60.51;101763.78;5074332;28;20017;-90
2022/05/02 20:19:02;;;;;;;7.10;5.20;;;;;;;11.57;61.91;101759.03;5551980;23;20126;-92
2022/05/02 20:21:58;;;;;;;11.37;5.63;;;;;;;11.55;61.04;101763.81;5042144;28;20029;-92
2022/05/02 20:24:27;;;;;;;8.75;5.40;;;;;;;11.34;62.36;101749.22;5046514;28;20512;-93
2022/05/02 20:26:54;;;;;;;8.63;5.53;;;;;;;11.35;62.72;101762.38;5035325;28;20025;-93
2022/05/02 20:29:22;;;;;;;8.63;5.20;;;;;;;11.23;63.10;101753.56;5035941;28;20562;-93
2022/05/02 20:37:48;;;;;;;9.70;5.00;;;;;;;11.15;63.16;101778.09;5062906;28;20282;-93
2022/05/02 20:40:17;;;;;;;7.57;5.10;;;;;;;11.04;63.54;101775.22;5042703;28;20022;-92
2022/05/02 20:42:51;;;;;;;10.38;5.05;;;;;;;11.03;63.42;101778.94;5039513;28;20025;-91
2022/05/02 20:45:20;;;;;;;8.38;5.15;;;;;;;10.88;63.75;101771.38;5054921;28;20149;-92
2022/05/02 20:48:16;;;;;;;8.13;4.82;;;;;;;10.82;63.44;101771.53;5053385;28;20040;-92
2022/05/02 20:50:46;;;;;;;8.23;5.05;;;;;;;10.81;63.65;101778.78;5054343;28;20096;-93
2022/05/02 20:53:27;;;;;;;8.43;4.55;;;;;;;10.75;63.26;101791.25;5054861;28;20100;-92
2022/05/02 20:55:57;;;;;;;7.57;4.80;;;;;;;10.69;63.71;101786.00;5053699;28;20116;-92
2022/05/02 20:58:24;;;;;;;5.72;4.57;;;;;;;10.62;63.75;101790.69;5052025;28;20055;-93
2022/05/02 21:00:50;;;;;;;7.80;4.37;;;;;;;10.59;63.70;101787.41;5045771;28;20045;-92
2022/05/02 21:03:16;;;;;;;5.40;4.40;;;;;;;10.44;63.63;101787.88;5053097;28;20280;-93
2022/05/02 21:05:48;;;;;;;8.25;4.55;;;;;;;10.44;63.44;101785.19;5053673;28;20489;-92
2022/05/02 21:08:22;;;;;;;5.28;4.15;;;;;;;10.29;63.63;101777.63;5053660;28;20035;-92
2022/05/02 21:10:56;;;;;;;8.35;4.10;;;;;;;10.35;63.84;101797.28;5045943;23;20070;-93
2022/05/02 21:13:56;;;;;;;8.68;4.50;;;;;;;10.28;63.41;101793.91;5061382;23;20073;-92
2022/05/02 21:16:48;;;;;;;6.85;4.22;;;;;;;10.22;63.59;101790.28;5013479;28;20052;-91
2022/05/02 21:19:16;;;;;;;7.40;4.50;;;;;;;10.12;64.13;101790.84;5010163;28;20227;-93
2022/05/02 21:22:15;;;;;;;7.45;4.78;;;;;;;9.97;64.37;101782.47;5026893;23;20058;-93
2022/05/02 21:24:57;;;;;;;7.80;4.50;;;;;;;10.02;64.35;101798.66;5039216;28;20033;-93
2022/05/02 21:28:01;;;;;;;16.37;6.13;;;;;;;9.96;63.90;101800.38;5020930;28;20124;-93
2022/05/02 21:30:41;;;;;;;14.53;5.73;;;;;;;9.89;64.50;101802.34;5029385;28;20296;-91
2022/05/02 21:36:19;;;;;;;13.43;6.07;;;;;;;9.77;64.54;101813.03;5040682;23;20460;-92
2022/05/02 21:38:49;;;;;;;12.23;5.65;;;;;;;9.64;65.69;101797.97;5033915;28;20056;-91
2022/05/02 21:41:22;;;;;;;10.82;4.50;;;;;;;9.59;65.81;101799.69;5034004;28;20022;-92
2022/05/02 21:43:47;;;;;;;13.57;7.03;;;;;;;9.49;66.44;101793.03;5032531;28;20022;-92
2022/05/02 21:46:22;;;;;;;12.30;8.13;;;;;;;9.49;66.05;101790.38;5033280;28;20087;-92
2022/05/02 21:48:53;;;;;;;8.82;5.43;;;;;;;9.40;66.30;101789.84;5039674;28;20037;-93
2022/05/02 21:51:31;;;;;;;5.60;4.70;;;;;;;9.35;66.43;101786.22;5035510;28;20025;-92
2022/05/02 21:54:15;;;;;;;4.97;4.00;;;;;;;9.37;66.28;101798.34;5003576;28;20030;-92
2022/05/02 21:56:59;;;;;;;6.40;3.95;;;;;;;9.22;66.33;101773.84;5005076;28;20034;-92
2022/05/02 21:59:27;;;;;;;6.78;4.22;;;;;;;9.22;67.30;101784.53;5013018;28;20095;-92
2022/05/02 22:01:52;;;;;;;5.57;3.67;;;;;;;9.26;68.16;101798.28;5013499;28;20046;-93
2022/05/02 22:04:27;;;;;;;5.20;3.60;;;;;;;9.16;67.57;101790.78;5018832;28;20324;-93
2022/05/02 22:07:02;;;;;;;5.00;3.28;;;;;;;9.15;67.66;101799.84;5014499;28;20061;-93
2022/05/02 22:09:47;;;;;;;10.38;4.30;;;;;;;9.08;67.47;101794.56;5030392;28;20033;-92
2022/05/02 22:12:22;;;;;;;4.97;3.43;;;;;;;8.98;68.23;101792.44;5041384;28;20033;-93
2022/05/02 22:14:49;;;;;;;8.33;4.27;;;;;;;8.89;68.73;101781.22;5057539;23;20370;-94
2022/05/02 22:17:23;;;;;;;8.38;4.20;;;;;;;8.85;68.81;101787.25;5032749;28;20487;-93
2022/05/02 22:20:18;;;;;;;8.07;4.32;;;;;;;8.90;68.00;101804.22;5032410;28;20124;-93
2022/05/02 22:22:49;;;;;;;8.68;4.07;;;;;;;8.86;69.00;101805.72;5030276;28;20052;-93
2022/05/02 22:25:20;;;;;;;5.72;3.70;;;;;;;8.79;69.10;101804.94;5044601;28;20039;-93
2022/05/02 22:27:52;;;;;;;5.53;3.80;;;;;;;8.64;69.85;101795.44;5052613;28;20539;-93
2022/05/02 22:30:17;;;;;;;5.82;3.80;;;;;;;8.69;69.73;101796.66;5052349;28;20031;-93
2022/05/02 22:32:52;;;;;;;5.50;4.20;;;;;;;8.63;69.25;101793.81;5035437;28;20029;-91
2022/05/02 22:35:26;;;;;;;5.20;3.92;;;;;;;8.63;69.97;101815.19;5055178;28;20013;-93
2022/05/02 22:38:22;;;;;;;5.40;4.00;;;;;;;8.59;69.45;101813.97;5060574;28;20484;-92
2022/05/02 22:40:57;;;;;;;6.55;3.88;;;;;;;8.41;70.77;101796.03;5030670;28;20115;-92
2022/05/02 22:43:22;;;;;;;6.90;4.10;;;;;;;8.39;71.37;101794.66;5049927;28;20071;-91
2022/05/02 22:45:48;;;;;;;8.20;4.23;;;;;;;8.43;71.46;101804.66;5069445;28;20017;-92
2022/05/02 22:48:25;;;;;;;5.17;4.10;;;;;;;8.36;71.10;101805.75;5067172;28;20021;-92
2022/05/02 22:50:56;;;;;;;7.10;4.05;;;;;;;8.28;71.35;101801.50;5065728;28;20025;-92
2022/05/02 22:53:47;;;;;;;7.13;3.97;;;;;;;8.30;70.80;101810.94;5064341;28;20179;-91
2022/05/02 22:56:18;;;;;;;6.43;4.15;;;;;;;8.15;71.66;101791.75;5061456;28;20652;-92